createdAt,value
2024-01-11T00:00:05.105Z,76.75
2024-01-11T00:01:05.381Z,74.16
2024-01-11T00:02:05.034Z,77.63
2024-01-11T00:03:04.952Z,74.25
2024-01-11T00:04:04.929Z,73.64
2024-01-11T00:05:04.935Z,72.19
2024-01-11T00:06:04.893Z,74.77
2024-01-11T00:07:04.825Z,75.37
2024-01-11T00:08:04.687Z,73.32
2024-01-11T00:09:04.648Z,76.32
2024-01-11T00:10:04.552Z,74.77
2024-01-11T00:11:04.949Z,72.02
2024-01-11T00:12:04.464Z,73.11
2024-01-11T00:13:04.367Z,72.00
2024-01-11T00:14:04.839Z,72.83
2024-01-11T00:15:04.316Z,71.82
2024-01-11T00:16:04.234Z,73.00
2024-01-11T00:17:04.175Z,71.43
2024-01-11T00:18:04.194Z,74.47
2024-01-11T00:19:04.119Z,73.55
2024-01-11T00:20:03.990Z,72.98
2024-01-11T00:21:03.873Z,71.77
2024-01-11T00:22:03.820Z,71.59
2024-01-11T00:23:03.754Z,72.74
2024-01-11T00:24:03.605Z,69.71
2024-01-11T00:25:03.539Z,69.15
2024-01-11T00:26:03.601Z,69.10
2024-01-11T00:27:03.389Z,69.62
2024-01-11T00:28:03.340Z,70.83
2024-01-11T00:29:03.321Z,69.52
2024-01-11T00:30:03.199Z,69.41
2024-01-11T00:31:03.241Z,68.36
2024-01-11T00:32:03.109Z,69.08
2024-01-11T00:33:03.133Z,69.28
2024-01-11T00:34:03.021Z,69.18
2024-01-11T00:35:02.941Z,65.44
2024-01-11T00:36:02.835Z,68.80
2024-01-11T00:37:02.788Z,67.96
2024-01-11T00:38:02.708Z,67.92
2024-01-11T00:39:02.647Z,67.96
2024-01-11T00:40:02.569Z,67.50
2024-01-11T00:41:02.546Z,67.37
2024-01-11T00:42:02.466Z,66.06
2024-01-11T00:43:02.432Z,67.39
2024-01-11T00:44:02.430Z,66.31
2024-01-11T00:45:02.363Z,66.57
2024-01-11T00:46:02.220Z,67.41
2024-01-11T00:47:02.258Z,66.77
2024-01-11T00:48:02.195Z,65.44
2024-01-11T00:49:02.191Z,67.66
2024-01-11T00:50:02.075Z,66.80
2024-01-11T00:51:01.884Z,66.79
2024-01-11T00:52:01.818Z,63.77
2024-01-11T00:53:01.800Z,64.58
2024-01-11T00:54:01.647Z,64.77
2024-01-11T00:55:01.591Z,65.08
2024-01-11T00:56:01.559Z,65.06
2024-01-11T00:57:01.416Z,62.78
2024-01-11T00:58:01.341Z,62.63
2024-01-11T00:59:01.349Z,62.16
2024-01-11T01:00:01.275Z,63.63
2024-01-11T01:01:01.383Z,62.45
2024-01-11T01:02:01.149Z,60.79
2024-01-11T01:03:01.013Z,61.81
2024-01-11T01:04:00.992Z,64.72
2024-01-11T01:05:00.925Z,62.22
2024-01-11T01:06:00.867Z,62.25
2024-01-11T01:07:00.699Z,62.60
2024-01-11T01:08:00.778Z,62.75
2024-01-11T01:09:00.615Z,62.41
2024-01-11T01:10:00.527Z,61.13
2024-01-11T01:11:00.503Z,62.40
2024-01-11T01:12:00.414Z,62.27
2024-01-11T01:13:00.321Z,61.38
2024-01-11T01:14:00.388Z,60.76
2024-01-11T01:15:00.335Z,62.98
2024-01-11T01:16:00.382Z,60.27
2024-01-11T01:17:00.109Z,59.73
2024-01-11T01:18:00.296Z,58.31
2024-01-11T01:19:00.168Z,61.62
2024-01-11T01:19:59.926Z,57.97
2024-01-11T01:20:59.894Z,59.11
2024-01-11T01:21:59.776Z,59.82
2024-01-11T01:22:59.687Z,57.56
2024-01-11T01:23:59.594Z,60.71
2024-01-11T01:24:59.580Z,61.12
2024-01-11T01:25:59.454Z,63.22
2024-01-11T01:26:59.358Z,59.64
2024-01-11T01:27:59.276Z,58.70
2024-01-11T01:28:59.320Z,59.29
2024-01-11T01:29:59.166Z,57.26
2024-01-11T01:30:59.166Z,58.38
2024-01-11T01:31:59.094Z,56.44
2024-01-11T01:32:59.092Z,57.34
2024-01-11T01:33:59.038Z,56.33
2024-01-11T01:34:58.808Z,56.51
2024-01-11T01:35:58.950Z,59.19
2024-01-11T01:36:58.613Z,57.19
2024-01-11T01:37:58.574Z,59.28
2024-01-11T01:38:58.504Z,59.31
2024-01-11T01:39:58.408Z,60.84
2024-01-11T01:40:58.364Z,59.49
2024-01-11T01:41:58.270Z,59.48
2024-01-11T01:42:58.178Z,58.12
2024-01-11T01:43:58.137Z,55.82
2024-01-11T01:44:58.019Z,58.13
2024-01-11T01:45:57.909Z,58.08
2024-01-11T01:46:57.895Z,56.78
2024-01-11T01:47:57.841Z,56.25
2024-01-11T01:48:57.763Z,57.43
2024-01-11T01:49:57.805Z,60.15
2024-01-11T01:50:57.563Z,56.59
2024-01-11T01:51:57.499Z,58.70
2024-01-11T01:52:57.474Z,57.86
2024-01-11T01:53:57.401Z,58.72
2024-01-11T01:54:57.289Z,57.49
2024-01-11T01:55:57.454Z,57.56
2024-01-11T01:56:57.121Z,57.72
2024-01-11T01:57:57.020Z,57.77
2024-01-11T01:58:56.982Z,55.81
2024-01-11T01:59:56.850Z,57.84
2024-01-11T02:00:56.895Z,57.31
2024-01-11T02:01:56.724Z,58.06
2024-01-11T02:02:56.803Z,58.01
2024-01-11T02:03:56.625Z,56.32
2024-01-11T02:04:56.564Z,59.22
2024-01-11T02:05:56.541Z,56.35
2024-01-11T02:06:56.440Z,56.60
2024-01-11T02:07:56.317Z,56.02
2024-01-11T02:08:56.145Z,56.78
2024-01-11T02:09:56.082Z,56.22
2024-01-11T02:10:56.439Z,56.06
2024-01-11T02:11:55.951Z,56.49
2024-01-11T02:12:55.845Z,55.11
2024-01-11T02:13:55.808Z,56.45
2024-01-11T02:14:55.667Z,56.52
2024-01-11T02:15:55.891Z,54.40
2024-01-11T02:16:55.579Z,54.14
2024-01-11T02:17:55.542Z,53.70
2024-01-11T02:18:55.460Z,54.62
2024-01-11T02:19:55.336Z,55.10
2024-01-11T02:20:55.197Z,53.06
2024-01-11T02:21:55.143Z,55.91
2024-01-11T02:22:55.046Z,53.75
2024-01-11T02:23:55.009Z,53.07
2024-01-11T02:24:54.901Z,55.32
2024-01-11T02:25:54.953Z,56.22
2024-01-11T02:26:54.738Z,55.13
2024-01-11T02:27:54.681Z,54.56
2024-01-11T02:28:54.757Z,55.44
2024-01-11T02:29:54.543Z,51.77
2024-01-11T02:30:54.515Z,53.54
2024-01-11T02:31:54.434Z,52.73
2024-01-11T02:32:54.632Z,53.89
2024-01-11T02:33:54.308Z,52.10
2024-01-11T02:34:54.179Z,52.30
2024-01-11T02:35:54.501Z,53.53
2024-01-11T02:36:54.035Z,51.94
2024-01-11T02:37:53.950Z,51.85
2024-01-11T02:38:53.905Z,52.75
2024-01-11T02:39:53.801Z,54.37
2024-01-11T02:40:53.748Z,52.65
2024-01-11T02:41:53.593Z,53.27
2024-01-11T02:42:53.519Z,51.54
2024-01-11T02:43:53.562Z,54.85
2024-01-11T02:44:53.407Z,52.10
2024-01-11T02:45:53.323Z,54.85
2024-01-11T02:46:53.288Z,53.01
2024-01-11T02:47:53.313Z,56.12
2024-01-11T02:48:53.244Z,55.45
2024-01-11T02:49:53.041Z,54.65
2024-01-11T02:50:52.991Z,52.55
2024-01-11T02:51:52.851Z,55.78
2024-01-11T02:52:52.825Z,54.92
2024-01-11T02:53:52.711Z,52.97
2024-01-11T02:54:52.614Z,54.06
2024-01-11T02:55:52.933Z,53.75
2024-01-11T02:56:52.511Z,53.58
2024-01-11T02:57:52.461Z,53.88
2024-01-11T02:58:52.334Z,54.08
2024-01-11T02:59:52.274Z,52.05
2024-01-11T03:00:52.467Z,52.40
2024-01-11T03:01:52.083Z,54.41
2024-01-11T03:02:52.168Z,54.84
2024-01-11T03:03:52.925Z,53.34
2024-01-11T03:04:51.910Z,51.04
2024-01-11T03:05:51.918Z,54.96
2024-01-11T03:06:51.835Z,53.93
2024-01-11T03:07:51.672Z,55.61
2024-01-11T03:08:51.600Z,51.40
2024-01-11T03:09:51.526Z,50.72
2024-01-11T03:10:51.484Z,50.84
2024-01-11T03:11:51.341Z,52.55
2024-01-11T03:12:51.296Z,53.63
2024-01-11T03:13:51.172Z,54.40
2024-01-11T03:14:51.089Z,51.97
2024-01-11T03:15:51.464Z,52.98
2024-01-11T03:16:50.961Z,53.29
2024-01-11T03:17:50.913Z,54.47
2024-01-11T03:18:50.854Z,54.42
2024-01-11T03:19:50.676Z,52.93
2024-01-11T03:20:50.632Z,53.50
2024-01-11T03:21:50.521Z,51.87
2024-01-11T03:22:50.422Z,53.80
2024-01-11T03:23:50.334Z,54.44
2024-01-11T03:24:50.251Z,52.06
2024-01-11T03:25:50.196Z,52.44
2024-01-11T03:26:50.263Z,52.92
2024-01-11T03:27:50.038Z,51.88
2024-01-11T03:28:49.964Z,51.45
2024-01-11T03:29:49.865Z,53.93
2024-01-11T03:30:49.905Z,52.01
2024-01-11T03:31:49.736Z,53.42
2024-01-11T03:32:49.846Z,50.57
2024-01-11T03:33:49.664Z,54.13
2024-01-11T03:34:49.478Z,52.63
2024-01-11T03:35:49.391Z,52.69
2024-01-11T03:36:49.362Z,52.59
2024-01-11T03:37:49.264Z,52.06
2024-01-11T03:39:49.112Z,52.87
2024-01-11T03:40:49.420Z,52.18
2024-01-11T03:41:48.979Z,51.35
2024-01-11T03:42:48.934Z,53.55
2024-01-11T03:43:48.822Z,51.07
2024-01-11T03:44:48.847Z,54.30
2024-01-11T03:45:48.930Z,54.37
2024-01-11T03:46:48.627Z,52.30
2024-01-11T03:47:48.617Z,52.82
2024-01-11T03:48:48.556Z,53.27
2024-01-11T03:49:48.566Z,51.92
2024-01-11T03:50:48.466Z,51.76
2024-01-11T03:51:48.254Z,54.98
2024-01-11T03:52:48.168Z,56.29
2024-01-11T03:53:48.140Z,53.64
2024-01-11T03:54:48.054Z,53.76
2024-01-11T03:55:47.985Z,50.12
2024-01-11T03:56:47.925Z,53.98
2024-01-11T03:57:47.858Z,55.65
2024-01-11T03:58:47.729Z,52.35
2024-01-11T03:59:47.735Z,50.00
2024-01-11T04:00:47.682Z,56.47
2024-01-11T04:01:47.569Z,51.85
2024-01-11T04:02:47.532Z,53.06
2024-01-11T04:03:47.471Z,51.53
2024-01-11T04:04:47.322Z,52.52
2024-01-11T04:05:47.336Z,50.61
2024-01-11T04:06:47.228Z,53.54
2024-01-11T04:07:47.076Z,53.41
2024-01-11T04:08:47.087Z,54.23
2024-01-11T04:09:46.918Z,52.58
2024-01-11T04:10:46.865Z,51.31
2024-01-11T04:11:46.822Z,52.48
2024-01-11T04:12:46.720Z,50.46
2024-01-11T04:13:46.634Z,53.93
2024-01-11T04:14:46.607Z,53.58
2024-01-11T04:15:46.546Z,52.16
2024-01-11T04:16:46.404Z,53.21
2024-01-11T04:17:46.419Z,51.22
2024-01-11T04:18:46.348Z,55.87
2024-01-11T04:19:46.203Z,55.10
2024-01-11T04:20:46.481Z,53.65
2024-01-11T04:21:46.071Z,54.09
2024-01-11T04:22:46.035Z,53.91
2024-01-11T04:23:45.991Z,53.25
2024-01-11T04:24:45.922Z,52.68
2024-01-11T04:25:45.870Z,52.76
2024-01-11T04:26:45.760Z,51.75
2024-01-11T04:27:52.974Z,50.00
2024-01-11T04:28:52.926Z,50.00
2024-01-11T04:29:52.944Z,50.00
2024-01-11T04:30:53.259Z,50.00
2024-01-11T04:32:00.664Z,50.00
2024-01-11T04:33:00.888Z,50.00
2024-01-11T04:34:00.786Z,50.00
2024-01-11T04:35:00.728Z,50.00
2024-01-11T04:36:00.732Z,50.00
2024-01-11T04:37:00.609Z,50.08
2024-01-11T04:38:00.656Z,51.31
2024-01-11T04:39:00.564Z,52.75
2024-01-11T04:40:00.584Z,51.17
2024-01-11T04:41:00.560Z,53.48
2024-01-11T04:42:00.553Z,53.23
2024-01-11T04:43:00.517Z,51.75
2024-01-11T04:44:00.535Z,52.26
2024-01-11T04:45:00.522Z,52.59
2024-01-11T04:46:00.474Z,54.10
2024-01-11T04:47:00.477Z,51.96
2024-01-11T04:48:00.603Z,54.19
2024-01-11T04:49:00.550Z,51.93
2024-01-11T04:50:00.546Z,50.51
2024-01-11T04:51:00.418Z,52.28
2024-01-11T04:52:00.373Z,52.30
2024-01-11T04:53:00.426Z,54.49
2024-01-11T04:54:00.386Z,53.02
2024-01-11T04:55:00.369Z,54.08
2024-01-11T04:56:00.466Z,53.49
2024-01-11T04:57:00.341Z,52.82
2024-01-11T04:58:00.350Z,53.41
2024-01-11T04:59:00.384Z,53.96
2024-01-11T05:00:03.527Z,54.56
2024-01-11T05:01:00.368Z,53.47
2024-01-11T05:02:00.358Z,53.41
2024-01-11T05:03:00.283Z,54.24
2024-01-11T05:04:00.452Z,55.22
2024-01-11T05:05:00.423Z,53.42
2024-01-11T05:06:00.460Z,54.88
2024-01-11T05:07:00.259Z,53.14
2024-01-11T05:08:00.344Z,54.02
2024-01-11T05:09:00.230Z,51.64
2024-01-11T05:10:00.251Z,53.60
2024-01-11T05:11:00.298Z,53.30
2024-01-11T05:12:00.180Z,52.39
2024-01-11T05:13:00.191Z,55.00
2024-01-11T05:14:00.352Z,54.59
2024-01-11T05:15:00.218Z,55.47
2024-01-11T05:16:00.213Z,51.74
2024-01-11T05:17:00.218Z,53.13
2024-01-11T05:18:00.431Z,53.55
2024-01-11T05:19:00.239Z,54.08
2024-01-11T05:20:00.313Z,54.15
2024-01-11T05:21:00.216Z,54.60
2024-01-11T05:22:00.073Z,55.42
2024-01-11T05:23:00.156Z,53.71
2024-01-11T05:24:00.114Z,55.01
2024-01-11T05:25:00.090Z,53.57
2024-01-11T05:26:00.079Z,52.87
2024-01-11T05:27:00.062Z,51.61
2024-01-11T05:28:00.069Z,55.23
2024-01-11T05:29:00.075Z,52.65
2024-01-11T05:30:00.067Z,55.82
2024-01-11T05:31:00.332Z,53.54
2024-01-11T05:32:00.157Z,53.38
2024-01-11T05:33:00.174Z,51.90
2024-01-11T05:34:00.186Z,53.47
2024-01-11T05:35:00.011Z,54.92
2024-01-11T05:35:59.988Z,55.26
2024-01-11T05:37:01.145Z,52.89
2024-01-11T05:38:00.018Z,54.79
2024-01-11T05:38:59.988Z,56.69
2024-01-11T05:39:59.984Z,57.36
2024-01-11T05:41:00.034Z,55.47
2024-01-11T05:41:59.953Z,54.12
2024-01-11T05:42:59.950Z,54.41
2024-01-11T05:43:59.966Z,55.73
2024-01-11T05:44:59.893Z,55.45
2024-01-11T05:45:59.931Z,53.53
2024-01-11T05:46:59.962Z,54.12
2024-01-11T05:47:59.957Z,56.54
2024-01-11T05:48:59.943Z,54.61
2024-01-11T05:49:59.979Z,53.59
2024-01-11T05:51:00.271Z,56.91
2024-01-11T05:51:59.870Z,56.60
2024-01-11T05:52:59.921Z,54.86
2024-01-11T05:53:59.842Z,55.64
2024-01-11T05:54:59.832Z,57.27
2024-01-11T05:55:59.901Z,54.97
2024-01-11T05:56:59.826Z,55.30
2024-01-11T05:57:59.855Z,55.46
2024-01-11T05:58:59.856Z,53.09
2024-01-11T05:59:59.811Z,54.24
2024-01-11T06:00:59.909Z,55.62
2024-01-11T06:01:59.805Z,55.08
2024-01-11T06:02:59.790Z,54.99
2024-01-11T06:03:59.792Z,54.74
2024-01-11T06:04:59.901Z,56.14
2024-01-11T06:06:00.426Z,55.68
2024-01-11T06:06:59.760Z,51.78
2024-01-11T06:07:59.857Z,36.99
2024-01-11T06:08:59.815Z,37.79
2024-01-11T06:09:59.834Z,50.00
2024-01-11T06:11:00.052Z,62.54
2024-01-11T06:11:59.850Z,71.62
2024-01-11T06:12:59.908Z,90.30
2024-01-11T06:13:59.932Z,102.27
2024-01-11T06:14:59.937Z,111.67
2024-01-11T06:15:59.986Z,114.80
2024-01-11T06:17:00.097Z,115.38
2024-01-11T06:18:00.125Z,116.39
2024-01-11T06:19:00.159Z,114.29
2024-01-11T06:20:00.034Z,112.72
2024-01-11T06:21:00.304Z,111.50
2024-01-11T06:22:00.063Z,111.15
2024-01-11T06:23:00.118Z,112.52
2024-01-11T06:24:00.107Z,112.22
2024-01-11T06:25:00.186Z,108.92
2024-01-11T06:26:00.330Z,111.89
2024-01-11T06:27:00.196Z,109.97
2024-01-11T06:28:00.194Z,109.29
2024-01-11T06:29:00.315Z,109.56
2024-01-11T06:30:00.267Z,110.80
2024-01-11T06:31:00.315Z,109.89
2024-01-11T06:32:00.425Z,109.89
2024-01-11T06:33:00.413Z,108.20
2024-01-11T06:34:00.463Z,108.97
2024-01-11T06:35:00.439Z,108.60
2024-01-11T06:36:00.423Z,108.05
2024-01-11T06:37:00.783Z,109.32
2024-01-11T06:38:00.425Z,105.49
2024-01-11T06:39:00.372Z,106.52
2024-01-11T06:40:00.422Z,107.73
2024-01-11T06:41:00.487Z,107.70
2024-01-11T06:42:00.508Z,109.34
2024-01-11T06:43:00.501Z,107.83
2024-01-11T06:44:02.049Z,107.84
2024-01-11T06:45:00.536Z,110.88
2024-01-11T06:46:00.545Z,112.50
2024-01-11T06:47:00.795Z,110.44
2024-01-11T06:48:00.729Z,106.14
2024-01-11T06:49:00.813Z,105.91
2024-01-11T06:50:00.718Z,105.06
2024-01-11T06:51:02.157Z,104.26
2024-01-11T06:52:00.689Z,101.95
2024-01-11T06:53:00.707Z,100.57
2024-01-11T06:54:00.675Z,93.16
2024-01-11T06:55:00.703Z,92.73
2024-01-11T06:56:00.784Z,90.45
2024-01-11T06:57:00.709Z,104.87
2024-01-11T06:58:00.763Z,103.74
2024-01-11T06:59:00.839Z,104.79
2024-01-11T07:00:01.025Z,106.41
2024-01-11T07:01:00.892Z,106.50
2024-01-11T07:02:00.977Z,107.68
2024-01-11T07:03:00.948Z,108.54
2024-01-11T07:04:01.031Z,109.86
2024-01-11T07:05:01.085Z,114.63
2024-01-11T07:06:01.116Z,115.63
2024-01-11T07:07:01.094Z,118.12
2024-01-11T07:08:01.118Z,120.80
2024-01-11T07:09:01.168Z,117.75
2024-01-11T07:10:01.157Z,121.81
2024-01-11T07:11:01.190Z,123.62
2024-01-11T07:12:01.220Z,125.92
2024-01-11T07:13:01.190Z,124.78
2024-01-11T07:14:01.226Z,121.82
2024-01-11T07:15:01.212Z,121.82
2024-01-11T07:16:01.218Z,121.46
2024-01-11T07:17:01.302Z,124.03
2024-01-11T07:18:01.595Z,124.71
2024-01-11T07:19:01.349Z,121.26
2024-01-11T07:20:01.337Z,123.06
2024-01-11T07:21:01.244Z,126.66
2024-01-11T07:22:01.281Z,123.20
2024-01-11T07:23:01.325Z,123.45
2024-01-11T07:24:01.304Z,125.06
2024-01-11T07:25:01.346Z,124.64
2024-01-11T07:26:01.343Z,126.38
2024-01-11T07:27:01.798Z,125.55
2024-01-11T07:28:01.401Z,125.83
2024-01-11T07:29:01.415Z,123.57
2024-01-11T07:30:01.411Z,127.88
2024-01-11T07:31:01.493Z,124.14
2024-01-11T07:32:02.589Z,124.24
2024-01-11T07:33:01.569Z,124.60
2024-01-11T07:34:01.505Z,123.61
2024-01-11T07:35:01.429Z,125.51
2024-01-11T07:36:01.552Z,125.69
2024-01-11T07:37:01.401Z,125.05
2024-01-11T07:38:01.394Z,126.04
2024-01-11T07:39:01.406Z,126.10
2024-01-11T07:40:01.385Z,126.74
2024-01-11T07:41:01.374Z,128.68
2024-01-11T07:42:01.355Z,129.81
2024-01-11T07:43:01.342Z,124.49
2024-01-11T07:44:01.402Z,124.66
2024-01-11T07:45:01.309Z,125.09
2024-01-11T07:46:01.308Z,123.08
2024-01-11T07:47:02.453Z,121.18
2024-01-11T07:48:01.394Z,123.73
2024-01-11T07:49:01.372Z,124.13
2024-01-11T07:50:01.357Z,124.92
2024-01-11T07:51:01.353Z,122.62
2024-01-11T07:52:01.317Z,121.88
2024-01-11T07:53:01.370Z,123.71
2024-01-11T07:54:01.406Z,122.47
2024-01-11T07:55:01.323Z,117.17
2024-01-11T07:56:01.293Z,114.70
2024-01-11T07:57:01.807Z,113.82
2024-01-11T07:58:01.375Z,109.96
2024-01-11T07:59:01.441Z,107.39
2024-01-11T08:00:01.369Z,104.49
2024-01-11T08:01:01.360Z,106.50
2024-01-11T08:02:01.893Z,105.64
2024-01-11T08:03:01.496Z,109.33
2024-01-11T08:04:01.536Z,110.33
2024-01-11T08:05:01.530Z,112.14
2024-01-11T08:06:01.599Z,115.23
2024-01-11T08:07:01.562Z,115.46
2024-01-11T08:08:01.644Z,117.01
2024-01-11T08:09:01.669Z,118.12
2024-01-11T08:10:01.666Z,116.99
2024-01-11T08:11:02.645Z,117.01
2024-01-11T08:12:01.635Z,117.36
2024-01-11T08:13:01.558Z,117.62
2024-01-11T08:14:01.613Z,118.58
2024-01-11T08:15:01.530Z,121.01
2024-01-11T08:16:01.481Z,122.33
2024-01-11T08:17:01.510Z,122.81
2024-01-11T08:18:01.467Z,122.59
2024-01-11T08:19:01.490Z,124.40
2024-01-11T08:20:01.472Z,124.43
2024-01-11T08:21:01.402Z,123.91
2024-01-11T08:22:01.807Z,119.84
2024-01-11T08:23:01.338Z,122.21
2024-01-11T08:24:03.427Z,124.87
2024-01-11T08:25:01.303Z,126.27
2024-01-11T08:26:01.341Z,121.78
2024-01-11T08:27:01.230Z,126.62
2024-01-11T08:28:01.248Z,125.06
2024-01-11T08:29:01.231Z,129.09
2024-01-11T08:30:01.327Z,127.99
2024-01-11T08:31:01.367Z,128.21
2024-01-11T08:32:02.045Z,128.79
2024-01-11T08:33:01.395Z,127.90
2024-01-11T08:34:01.467Z,128.48
2024-01-11T08:35:01.498Z,127.44
2024-01-11T08:36:01.315Z,129.04
2024-01-11T08:37:01.319Z,129.11
2024-01-11T08:38:01.430Z,129.88
2024-01-11T08:39:01.280Z,128.51
2024-01-11T08:40:01.305Z,129.44
2024-01-11T08:41:01.365Z,128.39
2024-01-11T08:42:01.320Z,128.97
2024-01-11T08:43:01.327Z,129.23
2024-01-11T08:44:01.293Z,127.96
2024-01-11T08:45:01.697Z,128.03
2024-01-11T08:46:01.276Z,110.38
2024-01-11T08:47:01.307Z,109.15
2024-01-11T08:48:01.471Z,119.33
2024-01-11T08:49:01.291Z,128.41
2024-01-11T08:50:01.273Z,133.48
2024-01-11T08:51:01.907Z,135.84
2024-01-11T08:52:01.543Z,135.62
2024-01-11T08:53:01.337Z,135.74
2024-01-11T08:54:01.288Z,139.81
2024-01-11T08:55:01.298Z,138.68
2024-01-11T08:56:01.256Z,139.98
2024-01-11T08:57:01.173Z,139.32
2024-01-11T08:58:01.181Z,139.46
2024-01-11T08:59:01.219Z,140.77
2024-01-11T09:00:01.225Z,139.71
2024-01-11T09:01:01.217Z,141.12
2024-01-11T09:02:09.988Z,140.99
2024-01-11T09:03:02.280Z,141.08
2024-01-11T09:04:01.183Z,141.35
2024-01-11T09:05:01.180Z,140.27
2024-01-11T09:06:01.252Z,141.56
2024-01-11T09:07:01.375Z,140.30
2024-01-11T09:08:01.143Z,142.15
2024-01-11T09:09:01.050Z,141.77
2024-01-11T09:10:00.996Z,141.71
2024-01-11T09:11:01.044Z,143.24
2024-01-11T09:12:01.341Z,142.39
2024-01-11T09:13:00.978Z,142.75
2024-01-11T09:14:00.929Z,143.59
2024-01-11T09:15:00.887Z,143.30
2024-01-11T09:16:00.818Z,143.12
2024-01-11T09:17:00.816Z,142.75
2024-01-11T09:18:01.022Z,142.49
2024-01-11T09:19:00.832Z,141.66
2024-01-11T09:20:01.111Z,141.85
2024-01-11T09:21:00.793Z,140.99
2024-01-11T09:22:00.797Z,140.85
2024-01-11T09:23:00.829Z,140.98
2024-01-11T09:24:00.810Z,138.66
2024-01-11T09:25:00.878Z,141.33
2024-01-11T09:26:00.909Z,137.22
2024-01-11T09:27:01.322Z,139.51
2024-01-11T09:28:00.851Z,137.19
2024-01-11T09:29:00.941Z,137.57
2024-01-11T09:30:00.910Z,136.25
2024-01-11T09:31:01.092Z,135.47
2024-01-11T09:32:01.257Z,136.62
2024-01-11T09:33:01.103Z,138.46
2024-01-11T09:34:00.981Z,135.29
2024-01-11T09:35:01.086Z,135.44
2024-01-11T09:36:01.050Z,136.41
2024-01-11T09:37:01.058Z,137.46
2024-01-11T09:38:01.157Z,135.37
2024-01-11T09:39:01.191Z,134.81
2024-01-11T09:40:01.126Z,134.26
2024-01-11T09:41:01.160Z,134.22
2024-01-11T09:42:01.332Z,134.12
2024-01-11T09:43:01.207Z,130.85
2024-01-11T09:44:01.298Z,131.75
2024-01-11T09:45:01.273Z,131.39
2024-01-11T09:46:01.334Z,148.03
2024-01-11T09:47:01.874Z,165.46
2024-01-11T09:48:01.404Z,180.38
2024-01-11T09:49:01.382Z,185.38
2024-01-11T09:50:01.388Z,191.38
2024-01-11T09:51:01.387Z,199.11
2024-01-11T09:52:01.831Z,200.00
2024-01-11T09:53:01.402Z,198.54
2024-01-11T09:54:01.368Z,199.81
2024-01-11T09:55:01.397Z,199.66
2024-01-11T09:56:01.441Z,198.66
2024-01-11T09:57:01.806Z,198.91
2024-01-11T09:58:01.398Z,199.36
2024-01-11T09:59:01.369Z,197.92
2024-01-11T10:00:01.446Z,196.30
2024-01-11T10:01:01.387Z,196.13
2024-01-11T10:02:01.898Z,196.35
2024-01-11T10:03:01.378Z,195.99
2024-01-11T10:04:01.390Z,194.79
2024-01-11T10:05:01.395Z,195.11
2024-01-11T10:06:01.429Z,192.75
2024-01-11T10:07:01.875Z,195.31
2024-01-11T10:08:01.355Z,190.98
2024-01-11T10:09:01.339Z,191.08
2024-01-11T10:10:01.430Z,190.91
2024-01-11T10:11:01.400Z,191.93
2024-01-11T10:12:01.851Z,192.35
2024-01-11T10:13:01.368Z,190.92
2024-01-11T10:14:01.466Z,190.68
2024-01-11T10:15:01.394Z,187.50
2024-01-11T10:16:01.362Z,190.14
2024-01-11T10:17:01.905Z,190.64
2024-01-11T10:18:01.489Z,190.48
2024-01-11T10:19:01.482Z,189.62
2024-01-11T10:20:01.466Z,191.55
2024-01-11T10:21:01.407Z,187.78
2024-01-11T10:22:01.321Z,189.70
2024-01-11T10:23:01.352Z,188.72
2024-01-11T10:24:01.321Z,189.32
2024-01-11T10:25:01.282Z,187.59
2024-01-11T10:26:01.337Z,186.77
2024-01-11T10:27:01.348Z,186.28
2024-01-11T10:28:01.315Z,186.80
2024-01-11T10:29:01.466Z,187.95
2024-01-11T10:30:01.323Z,190.16
2024-01-11T10:31:01.314Z,189.25
2024-01-11T10:32:01.461Z,188.88
2024-01-11T10:33:01.460Z,188.71
2024-01-11T10:34:01.259Z,189.45
2024-01-11T10:35:02.801Z,188.02
2024-01-11T10:36:01.200Z,186.61
2024-01-11T10:37:01.168Z,186.89
2024-01-11T10:38:01.212Z,185.27
2024-01-11T10:39:01.208Z,240.62
2024-01-11T10:40:01.171Z,198.05
2024-01-11T10:41:01.164Z,184.48
2024-01-11T10:42:04.103Z,178.08
2024-01-11T10:43:01.094Z,172.82
2024-01-11T10:44:01.083Z,172.87
2024-01-11T10:45:01.036Z,170.12
2024-01-11T10:46:01.074Z,164.84
2024-01-11T10:47:01.389Z,163.60
2024-01-11T10:48:03.867Z,161.82
2024-01-11T10:49:00.991Z,161.91
2024-01-11T10:50:00.959Z,161.89
2024-01-11T10:51:00.832Z,160.89
2024-01-11T10:52:00.847Z,157.23
2024-01-11T10:53:00.834Z,157.11
2024-01-11T10:54:02.324Z,156.67
2024-01-11T10:55:00.745Z,156.37
2024-01-11T10:56:00.806Z,154.94
2024-01-11T10:57:00.839Z,154.20
2024-01-11T10:58:00.710Z,151.49
2024-01-11T10:59:00.740Z,153.03
2024-01-11T11:00:00.582Z,153.90
2024-01-11T11:01:00.599Z,154.25
2024-01-11T11:02:00.708Z,155.50
2024-01-11T11:03:00.689Z,157.53
2024-01-11T11:04:00.497Z,159.25
2024-01-11T11:05:00.636Z,158.64
2024-01-11T11:06:00.552Z,164.07
2024-01-11T11:07:00.379Z,167.86
2024-01-11T11:08:00.366Z,169.91
2024-01-11T11:09:00.336Z,176.00
2024-01-11T11:10:00.303Z,182.61
2024-01-11T11:11:00.262Z,186.95
2024-01-11T11:12:00.351Z,192.61
2024-01-11T11:13:00.218Z,196.98
2024-01-11T11:14:00.239Z,197.62
2024-01-11T11:15:00.305Z,197.42
2024-01-11T11:16:02.045Z,198.67
2024-01-11T11:17:00.305Z,199.11
2024-01-11T11:18:00.424Z,200.00
2024-01-11T11:19:00.516Z,199.08
2024-01-11T11:20:00.391Z,198.58
2024-01-11T11:21:00.396Z,197.84
2024-01-11T11:22:00.874Z,197.81
2024-01-11T11:23:00.585Z,198.76
2024-01-11T11:24:00.480Z,199.18
2024-01-11T11:25:00.485Z,198.07
2024-01-11T11:26:00.639Z,198.23
2024-01-11T11:27:00.878Z,198.12
2024-01-11T11:28:01.155Z,198.59
2024-01-11T11:29:00.720Z,197.77
2024-01-11T11:30:00.673Z,197.68
2024-01-11T11:31:00.647Z,196.88
2024-01-11T11:32:00.783Z,197.82
2024-01-11T11:33:00.786Z,196.74
2024-01-11T11:34:02.776Z,196.06
2024-01-11T11:35:00.732Z,197.34
2024-01-11T11:36:00.661Z,197.08
2024-01-11T11:37:00.637Z,196.54
2024-01-11T11:38:00.642Z,196.29
2024-01-11T11:39:00.571Z,196.94
2024-01-11T11:40:01.945Z,196.29
2024-01-11T11:41:00.532Z,195.19
2024-01-11T11:42:00.489Z,194.82
2024-01-11T11:43:00.436Z,193.37
2024-01-11T11:44:00.425Z,194.18
2024-01-11T11:45:00.389Z,193.81
2024-01-11T11:46:02.998Z,193.61
2024-01-11T11:47:00.324Z,193.30
2024-01-11T11:48:00.418Z,193.71
2024-01-11T11:49:00.377Z,192.38
2024-01-11T11:50:00.269Z,193.27
2024-01-11T11:51:00.204Z,190.78
2024-01-11T11:52:00.201Z,189.46
2024-01-11T11:53:00.163Z,191.34
2024-01-11T11:54:00.192Z,192.35
2024-01-11T11:55:00.079Z,193.03
2024-01-11T11:56:00.068Z,191.44
2024-01-11T11:57:00.422Z,189.55
2024-01-11T11:57:59.987Z,188.61
2024-01-11T11:58:59.926Z,190.94
2024-01-11T11:59:59.918Z,189.38
2024-01-11T12:00:59.904Z,189.55
2024-01-11T12:01:59.841Z,188.80
2024-01-11T12:02:59.849Z,185.44
2024-01-11T12:03:59.755Z,186.54
2024-01-11T12:04:59.761Z,186.80
2024-01-11T12:05:59.725Z,184.93
2024-01-11T12:06:59.724Z,184.29
2024-01-11T12:07:59.605Z,183.39
2024-01-11T12:08:59.582Z,182.79
2024-01-11T12:09:59.522Z,183.79
2024-01-11T12:10:59.522Z,181.54
2024-01-11T12:12:07.465Z,182.51
2024-01-11T12:13:00.424Z,182.57
2024-01-11T12:13:59.548Z,180.96
2024-01-11T12:14:59.353Z,181.05
2024-01-11T12:15:59.347Z,181.00
2024-01-11T12:16:59.312Z,181.54
2024-01-11T12:17:59.391Z,181.56
2024-01-11T12:18:59.390Z,181.09
2024-01-11T12:19:59.221Z,180.31
2024-01-11T12:20:59.145Z,179.98
2024-01-11T12:21:59.105Z,179.32
2024-01-11T12:22:59.082Z,179.25
2024-01-11T12:23:59.109Z,181.02
2024-01-11T12:24:59.137Z,178.89
2024-01-11T12:25:59.124Z,178.90
2024-01-11T12:26:59.409Z,177.76
2024-01-11T12:27:59.176Z,177.97
2024-01-11T12:28:59.224Z,177.48
2024-01-11T12:29:59.956Z,178.23
2024-01-11T12:30:59.259Z,179.62
2024-01-11T12:31:59.416Z,177.96
2024-01-11T12:32:59.436Z,180.04
2024-01-11T12:33:59.302Z,177.32
2024-01-11T12:34:59.420Z,177.72
2024-01-11T12:35:59.414Z,175.50
2024-01-11T12:36:59.401Z,177.16
2024-01-11T12:37:59.366Z,175.81
2024-01-11T12:38:59.565Z,178.27
2024-01-11T12:39:59.415Z,177.96
2024-01-11T12:40:59.421Z,181.09